sensor_id;sensor_type;location;lat;lon;timestamp;temperature;humidity
7654;DHT22;3869;48.406;10.774;2023-05-07T00:01:02;12.70;99.90
7654;DHT22;3869;48.406;10.774;2023-05-07T00:03:33;12.60;99.90
7654;DHT22;3869;48.406;10.774;2023-05-07T00:06:02;12.60;99.90
7654;DHT22;3869;48.406;10.774;2023-05-07T00:08:30;12.60;99.90
7654;DHT22;3869;48.406;10.774;2023-05-07T00:10:58;12.60;99.90
7654;DHT22;3869;48.406;10.774;2023-05-07T00:13:26;12.50;99.90
7654;DHT22;3869;48.406;10.774;2023-05-07T00:15:54;12.50;99.90
7654;DHT22;3869;48.406;10.774;2023-05-07T00:18:22;12.40;99.90
7654;DHT22;3869;48.406;10.774;2023-05-07T00:20:51;12.40;99.90
7654;DHT22;3869;48.406;10.774;2023-05-07T00:23:19;12.30;99.90
7654;DHT22;3869;48.406;10.774;2023-05-07T00:25:47;12.40;99.90
7654;DHT22;3869;48.406;10.774;2023-05-07T00:28:15;12.40;99.90
7654;DHT22;3869;48.406;10.774;2023-05-07T00:30:43;12.40;99.90
7654;DHT22;3869;48.406;10.774;2023-05-07T00:33:11;12.40;99.90
7654;DHT22;3869;48.406;10.774;2023-05-07T00:35:39;12.50;99.90
7654;DHT22;3869;48.406;10.774;2023-05-07T00:38:09;12.50;99.90
7654;DHT22;3869;48.406;10.774;2023-05-07T00:40:37;12.50;99.90
7654;DHT22;3869;48.406;10.774;2023-05-07T00:43:05;12.40;99.90
7654;DHT22;3869;48.406;10.774;2023-05-07T00:45:33;12.40;99.90
7654;DHT22;3869;48.406;10.774;2023-05-07T00:48:02;12.40;99.90
7654;DHT22;3869;48.406;10.774;2023-05-07T00:50:32;12.40;99.90
7654;DHT22;3869;48.406;10.774;2023-05-07T00:53:00;12.40;99.90
7654;DHT22;3869;48.406;10.774;2023-05-07T00:55:30;12.30;99.90
7654;DHT22;3869;48.406;10.774;2023-05-07T00:57:58;12.20;99.90
7654;DHT22;3869;48.406;10.774;2023-05-07T01:00:26;12.20;99.90
7654;DHT22;3869;48.406;10.774;2023-05-07T01:02:54;12.20;99.90
7654;DHT22;3869;48.406;10.774;2023-05-07T01:05:24;12.30;99.90
7654;DHT22;3869;48.406;10.774;2023-05-07T01:07:53;12.30;99.90
7654;DHT22;3869;48.406;10.774;2023-05-07T01:10:22;12.30;99.90
7654;DHT22;3869;48.406;10.774;2023-05-07T01:12:53;12.30;99.90
7654;DHT22;3869;48.406;10.774;2023-05-07T01:15:21;12.30;99.90
7654;DHT22;3869;48.406;10.774;2023-05-07T01:17:49;12.30;99.90
7654;DHT22;3869;48.406;10.774;2023-05-07T01:20:18;12.30;99.90
7654;DHT22;3869;48.406;10.774;2023-05-07T01:22:48;12.30;99.90
7654;DHT22;3869;48.406;10.774;2023-05-07T01:25:17;12.20;99.90
7654;DHT22;3869;48.406;10.774;2023-05-07T01:27:46;12.20;99.90
7654;DHT22;3869;48.406;10.774;2023-05-07T01:30:14;12.20;99.90
7654;DHT22;3869;48.406;10.774;2023-05-07T01:32:44;12.20;99.90
7654;DHT22;3869;48.406;10.774;2023-05-07T01:35:19;12.20;99.90
7654;DHT22;3869;48.406;10.774;2023-05-07T01:37:49;12.20;99.90
7654;DHT22;3869;48.406;10.774;2023-05-07T01:40:17;12.20;99.90
7654;DHT22;3869;48.406;10.774;2023-05-07T01:42:46;12.20;99.90
7654;DHT22;3869;48.406;10.774;2023-05-07T01:45:14;12.20;99.90
7654;DHT22;3869;48.406;10.774;2023-05-07T01:47:43;12.20;99.90
7654;DHT22;3869;48.406;10.774;2023-05-07T01:50:12;12.20;99.90
7654;DHT22;3869;48.406;10.774;2023-05-07T01:52:40;12.10;99.90
7654;DHT22;3869;48.406;10.774;2023-05-07T01:55:10;12.10;99.90
7654;DHT22;3869;48.406;10.774;2023-05-07T01:57:38;12.00;99.90
7654;DHT22;3869;48.406;10.774;2023-05-07T02:00:07;12.00;99.90
7654;DHT22;3869;48.406;10.774;2023-05-07T02:02:36;12.00;99.90
7654;DHT22;3869;48.406;10.774;2023-05-07T02:05:05;12.00;99.90
7654;DHT22;3869;48.406;10.774;2023-05-07T02:07:33;12.00;99.90
7654;DHT22;3869;48.406;10.774;2023-05-07T02:10:01;12.00;99.90
7654;DHT22;3869;48.406;10.774;2023-05-07T02:12:31;11.90;99.90
7654;DHT22;3869;48.406;10.774;2023-05-07T02:15:00;11.90;99.90
7654;DHT22;3869;48.406;10.774;2023-05-07T02:17:28;11.90;99.90
7654;DHT22;3869;48.406;10.774;2023-05-07T02:19:58;11.90;99.90
7654;DHT22;3869;48.406;10.774;2023-05-07T02:22:26;12.00;99.90
7654;DHT22;3869;48.406;10.774;2023-05-07T02:24:54;12.00;99.90
7654;DHT22;3869;48.406;10.774;2023-05-07T02:27:22;12.00;99.90
7654;DHT22;3869;48.406;10.774;2023-05-07T02:29:51;12.00;99.90
7654;DHT22;3869;48.406;10.774;2023-05-07T02:32:19;11.90;99.90
7654;DHT22;3869;48.406;10.774;2023-05-07T02:34:50;11.90;99.90
7654;DHT22;3869;48.406;10.774;2023-05-07T02:37:18;11.90;99.90
7654;DHT22;3869;48.406;10.774;2023-05-07T02:39:46;11.90;99.90
7654;DHT22;3869;48.406;10.774;2023-05-07T02:42:13;11.80;99.90
7654;DHT22;3869;48.406;10.774;2023-05-07T02:44:42;11.80;99.90
7654;DHT22;3869;48.406;10.774;2023-05-07T02:47:11;11.90;99.90
7654;DHT22;3869;48.406;10.774;2023-05-07T02:49:39;11.80;99.90
7654;DHT22;3869;48.406;10.774;2023-05-07T02:52:08;11.90;99.90
7654;DHT22;3869;48.406;10.774;2023-05-07T02:54:36;11.90;99.90
7654;DHT22;3869;48.406;10.774;2023-05-07T02:57:04;11.80;99.90
7654;DHT22;3869;48.406;10.774;2023-05-07T02:59:32;11.80;99.90
7654;DHT22;3869;48.406;10.774;2023-05-07T03:02:00;11.80;99.90
7654;DHT22;3869;48.406;10.774;2023-05-07T03:04:29;11.70;99.90
7654;DHT22;3869;48.406;10.774;2023-05-07T03:06:57;11.70;99.90
7654;DHT22;3869;48.406;10.774;2023-05-07T03:09:25;11.70;99.90
7654;DHT22;3869;48.406;10.774;2023-05-07T03:11:52;11.70;99.90
7654;DHT22;3869;48.406;10.774;2023-05-07T03:14:20;11.70;99.90
7654;DHT22;3869;48.406;10.774;2023-05-07T03:16:49;11.70;99.90
7654;DHT22;3869;48.406;10.774;2023-05-07T03:19:17;11.70;99.90
7654;DHT22;3869;48.406;10.774;2023-05-07T03:21:46;11.60;99.90
7654;DHT22;3869;48.406;10.774;2023-05-07T03:24:14;11.60;99.90
7654;DHT22;3869;48.406;10.774;2023-05-07T03:26:42;11.60;99.90
7654;DHT22;3869;48.406;10.774;2023-05-07T03:29:10;11.60;99.90
7654;DHT22;3869;48.406;10.774;2023-05-07T03:31:38;11.60;99.90
7654;DHT22;3869;48.406;10.774;2023-05-07T03:34:06;11.60;99.90
7654;DHT22;3869;48.406;10.774;2023-05-07T03:36:34;11.60;99.90
7654;DHT22;3869;48.406;10.774;2023-05-07T03:39:03;11.50;99.90
7654;DHT22;3869;48.406;10.774;2023-05-07T03:41:32;11.50;99.90
7654;DHT22;3869;48.406;10.774;2023-05-07T03:44:00;11.50;99.90
7654;DHT22;3869;48.406;10.774;2023-05-07T03:46:28;11.50;99.90
7654;DHT22;3869;48.406;10.774;2023-05-07T03:48:56;11.50;99.90
7654;DHT22;3869;48.406;10.774;2023-05-07T03:51:24;11.50;99.90
7654;DHT22;3869;48.406;10.774;2023-05-07T03:53:52;11.50;99.90
7654;DHT22;3869;48.406;10.774;2023-05-07T03:56:21;11.50;99.90
7654;DHT22;3869;48.406;10.774;2023-05-07T03:58:49;11.40;99.90
7654;DHT22;3869;48.406;10.774;2023-05-07T04:01:17;11.40;99.90
7654;DHT22;3869;48.406;10.774;2023-05-07T04:03:46;11.40;99.90
7654;DHT22;3869;48.406;10.774;2023-05-07T04:06:15;11.40;99.90
7654;DHT22;3869;48.406;10.774;2023-05-07T04:08:44;11.40;99.90
7654;DHT22;3869;48.406;10.774;2023-05-07T04:11:11;11.40;99.90
7654;DHT22;3869;48.406;10.774;2023-05-07T04:13:41;11.40;99.90
7654;DHT22;3869;48.406;10.774;2023-05-07T04:16:09;11.20;99.90
7654;DHT22;3869;48.406;10.774;2023-05-07T04:18:37;11.20;99.90
7654;DHT22;3869;48.406;10.774;2023-05-07T04:21:05;11.20;99.90
7654;DHT22;3869;48.406;10.774;2023-05-07T04:23:33;11.20;99.90
7654;DHT22;3869;48.406;10.774;2023-05-07T04:26:01;11.30;99.90
7654;DHT22;3869;48.406;10.774;2023-05-07T04:28:29;11.30;99.90
7654;DHT22;3869;48.406;10.774;2023-05-07T04:30:59;11.30;99.90
7654;DHT22;3869;48.406;10.774;2023-05-07T04:33:27;11.20;99.90
7654;DHT22;3869;48.406;10.774;2023-05-07T04:35:54;11.20;99.90
7654;DHT22;3869;48.406;10.774;2023-05-07T04:38:23;11.20;99.90
7654;DHT22;3869;48.406;10.774;2023-05-07T04:40:51;11.20;99.90
7654;DHT22;3869;48.406;10.774;2023-05-07T04:43:19;11.20;99.90
7654;DHT22;3869;48.406;10.774;2023-05-07T04:45:47;11.20;99.90
7654;DHT22;3869;48.406;10.774;2023-05-07T04:48:17;11.20;99.90
7654;DHT22;3869;48.406;10.774;2023-05-07T04:50:47;11.20;99.90
7654;DHT22;3869;48.406;10.774;2023-05-07T04:53:16;11.10;99.90
7654;DHT22;3869;48.406;10.774;2023-05-07T04:55:44;11.20;99.90
7654;DHT22;3869;48.406;10.774;2023-05-07T04:58:12;11.30;99.90
7654;DHT22;3869;48.406;10.774;2023-05-07T05:00:40;11.30;99.90
7654;DHT22;3869;48.406;10.774;2023-05-07T05:03:09;11.40;99.90
7654;DHT22;3869;48.406;10.774;2023-05-07T05:05:39;11.50;99.90
7654;DHT22;3869;48.406;10.774;2023-05-07T05:08:07;11.60;99.90
7654;DHT22;3869;48.406;10.774;2023-05-07T05:10:35;11.60;99.90
7654;DHT22;3869;48.406;10.774;2023-05-07T05:13:03;11.70;99.90
7654;DHT22;3869;48.406;10.774;2023-05-07T05:15:31;11.80;99.90
7654;DHT22;3869;48.406;10.774;2023-05-07T05:17:59;12.00;99.90
7654;DHT22;3869;48.406;10.774;2023-05-07T05:20:27;12.20;99.90
7654;DHT22;3869;48.406;10.774;2023-05-07T05:22:57;12.40;99.90
7654;DHT22;3869;48.406;10.774;2023-05-07T05:25:24;12.50;99.90
7654;DHT22;3869;48.406;10.774;2023-05-07T05:27:52;12.60;99.90
7654;DHT22;3869;48.406;10.774;2023-05-07T05:30:20;12.70;99.90
7654;DHT22;3869;48.406;10.774;2023-05-07T05:32:49;12.70;99.90
7654;DHT22;3869;48.406;10.774;2023-05-07T05:35:17;12.80;99.90
7654;DHT22;3869;48.406;10.774;2023-05-07T05:37:44;12.90;99.90
7654;DHT22;3869;48.406;10.774;2023-05-07T05:40:14;13.00;99.90
7654;DHT22;3869;48.406;10.774;2023-05-07T05:42:42;13.20;99.90
7654;DHT22;3869;48.406;10.774;2023-05-07T05:45:10;13.30;99.90
7654;DHT22;3869;48.406;10.774;2023-05-07T05:47:38;13.40;99.90
7654;DHT22;3869;48.406;10.774;2023-05-07T05:50:07;13.60;99.90
7654;DHT22;3869;48.406;10.774;2023-05-07T05:52:36;13.60;99.90
7654;DHT22;3869;48.406;10.774;2023-05-07T05:55:04;13.70;99.90
7654;DHT22;3869;48.406;10.774;2023-05-07T05:57:34;13.80;99.90
7654;DHT22;3869;48.406;10.774;2023-05-07T06:00:03;13.90;99.90
7654;DHT22;3869;48.406;10.774;2023-05-07T06:02:31;14.00;99.90
7654;DHT22;3869;48.406;10.774;2023-05-07T06:05:00;14.10;99.90
7654;DHT22;3869;48.406;10.774;2023-05-07T06:07:28;14.20;99.90
7654;DHT22;3869;48.406;10.774;2023-05-07T06:09:56;14.30;99.90
7654;DHT22;3869;48.406;10.774;2023-05-07T06:12:24;14.40;99.90
7654;DHT22;3869;48.406;10.774;2023-05-07T06:14:53;14.50;99.90
7654;DHT22;3869;48.406;10.774;2023-05-07T06:17:21;14.50;99.90
7654;DHT22;3869;48.406;10.774;2023-05-07T06:19:49;14.60;99.90
7654;DHT22;3869;48.406;10.774;2023-05-07T06:22:17;14.70;99.90
7654;DHT22;3869;48.406;10.774;2023-05-07T06:24:45;14.80;99.90
7654;DHT22;3869;48.406;10.774;2023-05-07T06:27:13;14.90;99.90
7654;DHT22;3869;48.406;10.774;2023-05-07T06:29:41;15.00;99.90
7654;DHT22;3869;48.406;10.774;2023-05-07T06:32:11;15.00;99.90
7654;DHT22;3869;48.406;10.774;2023-05-07T06:34:40;15.10;99.90
7654;DHT22;3869;48.406;10.774;2023-05-07T06:37:08;15.20;99.90
7654;DHT22;3869;48.406;10.774;2023-05-07T06:39:36;15.30;99.90
7654;DHT22;3869;48.406;10.774;2023-05-07T06:42:04;15.40;99.90
7654;DHT22;3869;48.406;10.774;2023-05-07T06:44:32;15.50;99.90
7654;DHT22;3869;48.406;10.774;2023-05-07T06:47:00;15.60;99.90
7654;DHT22;3869;48.406;10.774;2023-05-07T06:49:29;15.70;99.90
7654;DHT22;3869;48.406;10.774;2023-05-07T06:51:58;15.70;99.90
7654;DHT22;3869;48.406;10.774;2023-05-07T06:54:26;15.80;99.90
7654;DHT22;3869;48.406;10.774;2023-05-07T06:56:54;15.90;99.90
7654;DHT22;3869;48.406;10.774;2023-05-07T06:59:21;16.00;99.90
7654;DHT22;3869;48.406;10.774;2023-05-07T07:01:49;16.10;99.90
7654;DHT22;3869;48.406;10.774;2023-05-07T07:04:17;16.20;99.90
7654;DHT22;3869;48.406;10.774;2023-05-07T07:06:47;16.20;99.90
7654;DHT22;3869;48.406;10.774;2023-05-07T07:09:15;16.30;99.90
7654;DHT22;3869;48.406;10.774;2023-05-07T07:11:43;16.30;99.90
7654;DHT22;3869;48.406;10.774;2023-05-07T07:14:11;16.40;99.90
7654;DHT22;3869;48.406;10.774;2023-05-07T07:16:39;16.50;99.90
7654;DHT22;3869;48.406;10.774;2023-05-07T07:19:07;16.60;99.90
7654;DHT22;3869;48.406;10.774;2023-05-07T07:21:35;16.70;99.90
7654;DHT22;3869;48.406;10.774;2023-05-07T07:24:05;16.80;99.90
7654;DHT22;3869;48.406;10.774;2023-05-07T07:26:33;16.90;99.90
7654;DHT22;3869;48.406;10.774;2023-05-07T07:29:01;17.00;99.90
7654;DHT22;3869;48.406;10.774;2023-05-07T07:31:29;17.10;99.90
7654;DHT22;3869;48.406;10.774;2023-05-07T07:33:57;17.10;99.90
7654;DHT22;3869;48.406;10.774;2023-05-07T07:36:25;17.20;99.90
7654;DHT22;3869;48.406;10.774;2023-05-07T07:39:12;17.20;99.90
7654;DHT22;3869;48.406;10.774;2023-05-07T07:41:40;17.30;99.90
7654;DHT22;3869;48.406;10.774;2023-05-07T07:44:08;17.30;99.90
7654;DHT22;3869;48.406;10.774;2023-05-07T07:46:42;17.40;99.90
7654;DHT22;3869;48.406;10.774;2023-05-07T07:49:10;17.50;99.90
7654;DHT22;3869;48.406;10.774;2023-05-07T07:51:37;17.50;99.90
7654;DHT22;3869;48.406;10.774;2023-05-07T07:54:05;17.60;99.90
7654;DHT22;3869;48.406;10.774;2023-05-07T07:56:35;17.70;99.90
7654;DHT22;3869;48.406;10.774;2023-05-07T07:59:03;17.80;99.90
7654;DHT22;3869;48.406;10.774;2023-05-07T08:01:31;17.80;99.90
7654;DHT22;3869;48.406;10.774;2023-05-07T08:03:59;17.90;99.90
7654;DHT22;3869;48.406;10.774;2023-05-07T08:06:30;17.90;99.90
7654;DHT22;3869;48.406;10.774;2023-05-07T08:08:58;18.00;99.90
7654;DHT22;3869;48.406;10.774;2023-05-07T08:11:26;18.10;99.90
7654;DHT22;3869;48.406;10.774;2023-05-07T08:13:56;18.10;99.90
7654;DHT22;3869;48.406;10.774;2023-05-07T08:16:24;18.00;99.90
7654;DHT22;3869;48.406;10.774;2023-05-07T08:18:52;18.00;99.90
7654;DHT22;3869;48.406;10.774;2023-05-07T08:21:20;18.10;99.90
7654;DHT22;3869;48.406;10.774;2023-05-07T08:23:48;18.10;99.90
7654;DHT22;3869;48.406;10.774;2023-05-07T08:26:15;18.00;99.90
7654;DHT22;3869;48.406;10.774;2023-05-07T08:28:43;18.00;99.90
7654;DHT22;3869;48.406;10.774;2023-05-07T08:31:12;18.00;99.90
7654;DHT22;3869;48.406;10.774;2023-05-07T08:33:41;18.00;99.90
7654;DHT22;3869;48.406;10.774;2023-05-07T08:36:09;18.00;99.90
7654;DHT22;3869;48.406;10.774;2023-05-07T08:38:37;18.20;99.90
7654;DHT22;3869;48.406;10.774;2023-05-07T08:41:09;18.20;99.90
7654;DHT22;3869;48.406;10.774;2023-05-07T08:43:38;18.40;99.90
7654;DHT22;3869;48.406;10.774;2023-05-07T08:46:09;18.50;99.90
7654;DHT22;3869;48.406;10.774;2023-05-07T08:48:38;18.60;99.90
7654;DHT22;3869;48.406;10.774;2023-05-07T08:51:08;18.70;99.90
7654;DHT22;3869;48.406;10.774;2023-05-07T08:53:36;18.80;99.90
7654;DHT22;3869;48.406;10.774;2023-05-07T08:56:08;18.90;99.90
7654;DHT22;3869;48.406;10.774;2023-05-07T08:58:36;19.00;99.90
7654;DHT22;3869;48.406;10.774;2023-05-07T09:01:07;19.20;99.90
7654;DHT22;3869;48.406;10.774;2023-05-07T09:03:38;19.30;99.90
7654;DHT22;3869;48.406;10.774;2023-05-07T09:06:06;19.30;99.90
7654;DHT22;3869;48.406;10.774;2023-05-07T09:08:35;19.30;99.90
7654;DHT22;3869;48.406;10.774;2023-05-07T09:11:03;19.30;99.90
7654;DHT22;3869;48.406;10.774;2023-05-07T09:13:31;19.30;99.90
7654;DHT22;3869;48.406;10.774;2023-05-07T09:16:10;19.30;99.90
7654;DHT22;3869;48.406;10.774;2023-05-07T09:18:43;19.40;99.90
7654;DHT22;3869;48.406;10.774;2023-05-07T09:21:14;19.40;99.90
7654;DHT22;3869;48.406;10.774;2023-05-07T09:23:42;19.50;99.90
7654;DHT22;3869;48.406;10.774;2023-05-07T09:26:11;19.60;99.90
7654;DHT22;3869;48.406;10.774;2023-05-07T09:28:39;19.70;99.90
7654;DHT22;3869;48.406;10.774;2023-05-07T09:31:09;19.80;99.90
7654;DHT22;3869;48.406;10.774;2023-05-07T09:33:37;19.90;99.90
7654;DHT22;3869;48.406;10.774;2023-05-07T09:36:08;19.90;99.90
7654;DHT22;3869;48.406;10.774;2023-05-07T09:38:37;19.80;99.90
7654;DHT22;3869;48.406;10.774;2023-05-07T09:41:07;19.70;99.90
7654;DHT22;3869;48.406;10.774;2023-05-07T09:43:35;19.70;99.90
7654;DHT22;3869;48.406;10.774;2023-05-07T09:46:07;19.80;99.90
7654;DHT22;3869;48.406;10.774;2023-05-07T09:48:38;19.80;99.90
7654;DHT22;3869;48.406;10.774;2023-05-07T09:51:18;19.80;99.90
7654;DHT22;3869;48.406;10.774;2023-05-07T09:53:50;19.90;99.90
7654;DHT22;3869;48.406;10.774;2023-05-07T09:56:20;20.00;99.90
7654;DHT22;3869;48.406;10.774;2023-05-07T09:58:49;20.00;99.90
7654;DHT22;3869;48.406;10.774;2023-05-07T10:01:19;20.00;99.90
7654;DHT22;3869;48.406;10.774;2023-05-07T10:03:49;20.00;99.90
7654;DHT22;3869;48.406;10.774;2023-05-07T10:06:21;20.10;99.90
7654;DHT22;3869;48.406;10.774;2023-05-07T10:08:51;20.10;99.90
7654;DHT22;3869;48.406;10.774;2023-05-07T10:11:19;20.20;99.90
7654;DHT22;3869;48.406;10.774;2023-05-07T10:13:50;20.20;99.90
7654;DHT22;3869;48.406;10.774;2023-05-07T10:16:19;20.40;99.90
7654;DHT22;3869;48.406;10.774;2023-05-07T10:18:49;20.50;99.90
7654;DHT22;3869;48.406;10.774;2023-05-07T10:21:19;20.60;99.90
7654;DHT22;3869;48.406;10.774;2023-05-07T10:23:49;20.70;99.90
7654;DHT22;3869;48.406;10.774;2023-05-07T10:26:19;20.80;99.90
7654;DHT22;3869;48.406;10.774;2023-05-07T10:28:53;20.90;99.90
7654;DHT22;3869;48.406;10.774;2023-05-07T10:34:24;21.10;99.90
7654;DHT22;3869;48.406;10.774;2023-05-07T10:36:55;21.10;99.90
7654;DHT22;3869;48.406;10.774;2023-05-07T10:39:24;21.10;99.90
7654;DHT22;3869;48.406;10.774;2023-05-07T10:41:52;21.10;99.90
7654;DHT22;3869;48.406;10.774;2023-05-07T10:44:27;21.20;99.90
7654;DHT22;3869;48.406;10.774;2023-05-07T10:47:06;21.20;99.90
7654;DHT22;3869;48.406;10.774;2023-05-07T10:49:37;21.20;99.90
7654;DHT22;3869;48.406;10.774;2023-05-07T10:52:17;21.30;99.90
7654;DHT22;3869;48.406;10.774;2023-05-07T10:54:46;21.30;99.80
7654;DHT22;3869;48.406;10.774;2023-05-07T10:57:33;21.20;99.90
7654;DHT22;3869;48.406;10.774;2023-05-07T11:00:02;21.20;99.60
7654;DHT22;3869;48.406;10.774;2023-05-07T11:03:04;21.30;99.70
7654;DHT22;3869;48.406;10.774;2023-05-07T11:05:34;21.30;98.90
7654;DHT22;3869;48.406;10.774;2023-05-07T11:08:05;21.40;99.30
7654;DHT22;3869;48.406;10.774;2023-05-07T11:10:50;21.50;99.60
7654;DHT22;3869;48.406;10.774;2023-05-07T11:13:40;21.60;99.60
7654;DHT22;3869;48.406;10.774;2023-05-07T11:16:17;21.60;99.20
7654;DHT22;3869;48.406;10.774;2023-05-07T11:18:48;21.70;99.80
7654;DHT22;3869;48.406;10.774;2023-05-07T11:21:33;21.80;99.90
7654;DHT22;3869;48.406;10.774;2023-05-07T11:24:04;21.80;99.60
7654;DHT22;3869;48.406;10.774;2023-05-07T11:26:42;21.70;99.10
7654;DHT22;3869;48.406;10.774;2023-05-07T11:29:12;21.80;99.60
7654;DHT22;3869;48.406;10.774;2023-05-07T11:31:40;21.80;99.60
7654;DHT22;3869;48.406;10.774;2023-05-07T11:34:08;21.80;99.60
7654;DHT22;3869;48.406;10.774;2023-05-07T11:36:42;21.80;99.60
7654;DHT22;3869;48.406;10.774;2023-05-07T11:39:31;21.90;99.70
7654;DHT22;3869;48.406;10.774;2023-05-07T11:42:00;22.00;99.90
7654;DHT22;3869;48.406;10.774;2023-05-07T11:44:41;22.20;99.90
7654;DHT22;3869;48.406;10.774;2023-05-07T11:47:10;22.00;99.30
7654;DHT22;3869;48.406;10.774;2023-05-07T11:49:38;22.10;99.90
7654;DHT22;3869;48.406;10.774;2023-05-07T11:52:07;22.10;99.90
7654;DHT22;3869;48.406;10.774;2023-05-07T11:54:37;22.20;99.70
7654;DHT22;3869;48.406;10.774;2023-05-07T11:57:05;22.20;99.10
7654;DHT22;3869;48.406;10.774;2023-05-07T11:59:38;22.30;99.10
7654;DHT22;3869;48.406;10.774;2023-05-07T12:02:07;22.30;98.40
7654;DHT22;3869;48.406;10.774;2023-05-07T12:04:35;22.40;98.90
7654;DHT22;3869;48.406;10.774;2023-05-07T12:07:08;22.50;98.80
7654;DHT22;3869;48.406;10.774;2023-05-07T12:09:40;22.50;97.90
7654;DHT22;3869;48.406;10.774;2023-05-07T12:12:08;22.50;98.30
7654;DHT22;3869;48.406;10.774;2023-05-07T12:14:38;22.60;98.30
7654;DHT22;3869;48.406;10.774;2023-05-07T12:17:07;22.60;98.00
7654;DHT22;3869;48.406;10.774;2023-05-07T12:19:36;22.70;98.40
7654;DHT22;3869;48.406;10.774;2023-05-07T12:22:05;22.80;99.30
7654;DHT22;3869;48.406;10.774;2023-05-07T12:24:46;22.90;97.80
7654;DHT22;3869;48.406;10.774;2023-05-07T12:27:14;22.80;97.30
7654;DHT22;3869;48.406;10.774;2023-05-07T12:29:44;22.80;98.20
7654;DHT22;3869;48.406;10.774;2023-05-07T12:32:13;22.80;98.40
7654;DHT22;3869;48.406;10.774;2023-05-07T12:34:42;22.90;97.90
7654;DHT22;3869;48.406;10.774;2023-05-07T12:37:11;22.90;97.40
7654;DHT22;3869;48.406;10.774;2023-05-07T12:39:46;22.90;97.50
7654;DHT22;3869;48.406;10.774;2023-05-07T12:42:15;23.00;97.90
7654;DHT22;3869;48.406;10.774;2023-05-07T12:44:46;23.10;97.80
7654;DHT22;3869;48.406;10.774;2023-05-07T12:47:15;23.10;97.90
7654;DHT22;3869;48.406;10.774;2023-05-07T12:49:43;23.00;97.30
7654;DHT22;3869;48.406;10.774;2023-05-07T12:52:13;22.90;98.70
7654;DHT22;3869;48.406;10.774;2023-05-07T12:54:41;22.90;97.90
7654;DHT22;3869;48.406;10.774;2023-05-07T12:57:10;22.90;97.90
7654;DHT22;3869;48.406;10.774;2023-05-07T12:59:40;23.00;98.10
7654;DHT22;3869;48.406;10.774;2023-05-07T13:02:09;22.90;97.30
7654;DHT22;3869;48.406;10.774;2023-05-07T13:04:37;22.80;97.50
7654;DHT22;3869;48.406;10.774;2023-05-07T13:07:06;22.80;98.30
7654;DHT22;3869;48.406;10.774;2023-05-07T13:09:34;22.80;97.70
7654;DHT22;3869;48.406;10.774;2023-05-07T13:12:03;22.80;98.00
7654;DHT22;3869;48.406;10.774;2023-05-07T13:14:34;22.80;97.60
7654;DHT22;3869;48.406;10.774;2023-05-07T13:17:02;22.80;97.90
7654;DHT22;3869;48.406;10.774;2023-05-07T13:19:29;22.70;98.10
7654;DHT22;3869;48.406;10.774;2023-05-07T13:21:57;22.70;97.80
7654;DHT22;3869;48.406;10.774;2023-05-07T13:24:25;22.70;98.20
7654;DHT22;3869;48.406;10.774;2023-05-07T13:26:53;22.60;97.50
7654;DHT22;3869;48.406;10.774;2023-05-07T13:29:21;22.40;98.30
7654;DHT22;3869;48.406;10.774;2023-05-07T13:31:56;22.30;98.10
7654;DHT22;3869;48.406;10.774;2023-05-07T13:34:25;22.40;98.60
7654;DHT22;3869;48.406;10.774;2023-05-07T13:36:53;22.50;98.60
7654;DHT22;3869;48.406;10.774;2023-05-07T13:39:21;22.60;98.90
7654;DHT22;3869;48.406;10.774;2023-05-07T13:41:49;22.70;98.50
7654;DHT22;3869;48.406;10.774;2023-05-07T13:44:17;22.70;98.30
7654;DHT22;3869;48.406;10.774;2023-05-07T13:46:45;22.60;98.20
7654;DHT22;3869;48.406;10.774;2023-05-07T13:49:14;22.60;98.00
7654;DHT22;3869;48.406;10.774;2023-05-07T13:51:42;22.50;97.70
7654;DHT22;3869;48.406;10.774;2023-05-07T13:54:10;22.50;97.90
7654;DHT22;3869;48.406;10.774;2023-05-07T13:56:39;22.60;97.90
7654;DHT22;3869;48.406;10.774;2023-05-07T13:59:07;22.60;98.00
7654;DHT22;3869;48.406;10.774;2023-05-07T14:01:35;22.60;97.80
7654;DHT22;3869;48.406;10.774;2023-05-07T14:04:03;22.70;97.70
7654;DHT22;3869;48.406;10.774;2023-05-07T14:06:32;22.60;98.10
7654;DHT22;3869;48.406;10.774;2023-05-07T14:09:00;22.60;98.10
7654;DHT22;3869;48.406;10.774;2023-05-07T14:11:28;22.70;97.50
7654;DHT22;3869;48.406;10.774;2023-05-07T14:13:56;22.80;97.90
7654;DHT22;3869;48.406;10.774;2023-05-07T14:16:25;22.70;97.40
7654;DHT22;3869;48.406;10.774;2023-05-07T14:18:53;22.60;97.20
7654;DHT22;3869;48.406;10.774;2023-05-07T14:21:24;22.70;97.00
7654;DHT22;3869;48.406;10.774;2023-05-07T14:23:53;22.70;97.60
7654;DHT22;3869;48.406;10.774;2023-05-07T14:26:23;22.80;97.30
7654;DHT22;3869;48.406;10.774;2023-05-07T14:28:51;22.90;97.80
7654;DHT22;3869;48.406;10.774;2023-05-07T14:31:19;23.00;98.40
7654;DHT22;3869;48.406;10.774;2023-05-07T14:33:47;23.00;97.30
7654;DHT22;3869;48.406;10.774;2023-05-07T14:36:16;23.00;97.30
7654;DHT22;3869;48.406;10.774;2023-05-07T14:38:44;22.90;96.90
7654;DHT22;3869;48.406;10.774;2023-05-07T14:41:13;22.90;97.60
7654;DHT22;3869;48.406;10.774;2023-05-07T14:43:41;22.90;97.70
7654;DHT22;3869;48.406;10.774;2023-05-07T14:46:09;22.80;97.80
7654;DHT22;3869;48.406;10.774;2023-05-07T14:48:37;22.80;97.80
7654;DHT22;3869;48.406;10.774;2023-05-07T14:51:05;22.80;97.70
7654;DHT22;3869;48.406;10.774;2023-05-07T14:53:33;22.70;97.50
7654;DHT22;3869;48.406;10.774;2023-05-07T14:56:01;22.50;97.70
7654;DHT22;3869;48.406;10.774;2023-05-07T14:58:31;22.30;97.80
7654;DHT22;3869;48.406;10.774;2023-05-07T15:00:59;22.10;97.40
7654;DHT22;3869;48.406;10.774;2023-05-07T15:03:27;21.90;97.90
7654;DHT22;3869;48.406;10.774;2023-05-07T15:05:56;21.70;98.00
7654;DHT22;3869;48.406;10.774;2023-05-07T15:08:24;21.70;98.00
7654;DHT22;3869;48.406;10.774;2023-05-07T15:10:52;21.70;98.50
7654;DHT22;3869;48.406;10.774;2023-05-07T15:13:19;21.80;98.80
7654;DHT22;3869;48.406;10.774;2023-05-07T15:15:49;21.80;98.50
7654;DHT22;3869;48.406;10.774;2023-05-07T15:18:17;21.80;99.00
7654;DHT22;3869;48.406;10.774;2023-05-07T15:20:48;21.80;99.20
7654;DHT22;3869;48.406;10.774;2023-05-07T15:23:16;21.90;99.40
7654;DHT22;3869;48.406;10.774;2023-05-07T15:25:44;21.90;99.20
7654;DHT22;3869;48.406;10.774;2023-05-07T15:28:15;21.80;98.40
7654;DHT22;3869;48.406;10.774;2023-05-07T15:30:43;21.70;98.90
7654;DHT22;3869;48.406;10.774;2023-05-07T15:33:13;21.70;98.70
7654;DHT22;3869;48.406;10.774;2023-05-07T15:35:41;21.70;98.80
7654;DHT22;3869;48.406;10.774;2023-05-07T15:38:09;21.70;98.70
7654;DHT22;3869;48.406;10.774;2023-05-07T15:40:37;21.70;98.90
7654;DHT22;3869;48.406;10.774;2023-05-07T15:43:09;21.60;98.50
7654;DHT22;3869;48.406;10.774;2023-05-07T15:45:38;21.50;98.90
7654;DHT22;3869;48.406;10.774;2023-05-07T15:48:07;21.50;98.60
7654;DHT22;3869;48.406;10.774;2023-05-07T15:50:37;21.50;98.90
7654;DHT22;3869;48.406;10.774;2023-05-07T15:53:05;21.50;99.10
7654;DHT22;3869;48.406;10.774;2023-05-07T15:55:33;21.50;99.40
7654;DHT22;3869;48.406;10.774;2023-05-07T15:58:01;21.40;98.90
7654;DHT22;3869;48.406;10.774;2023-05-07T16:00:30;21.40;98.90